Rechercher aéroport 
image banner adimage banner adimage banner ad
image banner ad

5CL9 - Table Mountain Field

Situé à Auberry, United States

ICAO - 5CL9, IATA -

Données fournies par Airmate  

Information générale

Coordonnées: N37°8'29" W119°30'29"
Élévation : 1280 feet MSL.
Variation magnétique : 15° East
Voir autres Aéroports à California

Données opérationnelles

Special qualification required
Heure actuelle UTC:
Heure actuelle locale:
Météo à : KFAT - Fresno Yosemite Intl ( 45 km )
METAR: KFAT 262253Z VRB05KT 10SM SCT200 36/03 A2986 RMK AO2 SLP105 MTNS OBSC FU HZ DSNT N-E-S T03560028 $
TAF: KFAT 261720Z 2618/2718 VRB04KT P6SM FEW070 SCT150 BKN200
Voir NOTAMs / SUP AIP / TFR affectant cet aéroport [VIEW]
Fréquences de communication: [VIEW]

Pistes:

Identifiant RWYQFULongueur (ft)Largeur (ft)SurfaceLDA (ft)
15200050EARTH
33200050EARTH

Coordonnées de l'aéroport

Adresse: Auberry United States

Vue satellite de 5CL9